Time;durP1;ratioP1;P1;durP2;ratioP2;P2;SDS_P1;SDS_P2;PMS_P1;PMS_P2;Temp;Humidity;BMP_temperature;BMP_pressure;BME280_temperature;BME280_humidity;BME280_pressure;Samples;Min_cycle;Max_cycle;Signal;HPM_P1;HPM_P2
2021/04/21 00:02:51;;;;;;;1999.90;999.90;;;;;;;9.43;61.74;100924.75;15897420;27;20406;-52
2021/04/21 00:10:25;;;;;;;1999.90;999.90;;;;;;;9.36;60.84;100922.41;15938734;27;20411;-51
2021/04/21 00:18:00;;;;;;;1999.90;999.90;;;;;;;9.13;62.21;100923.59;15946558;27;20058;-52
2021/04/21 00:25:39;;;;;;;1999.90;999.90;;;;;;;9.05;61.86;100921.56;15936236;27;20047;-55
2021/04/21 00:33:12;;;;;;;;;;;;;;;8.90;62.30;100922.78;15912492;27;20145;-52
2021/04/21 00:40:54;;;;;;;1999.90;999.90;;;;;;;8.63;63.43;100918.97;15910886;27;20059;-52
2021/04/21 00:48:37;;;;;;;1999.90;999.90;;;;;;;8.53;64.05;100922.00;15909824;27;20507;-53
2021/04/21 00:56:20;;;;;;;1999.90;999.90;;;;;;;8.50;64.07;100914.31;15887114;27;20035;-57
2021/04/21 01:03:53;;;;;;;1999.90;999.90;;;;;;;8.37;64.25;100913.22;15909454;27;20126;-53
2021/04/21 01:11:33;;;;;;;1999.90;999.90;;;;;;;8.27;64.59;100913.41;15909165;27;20035;-56
2021/04/21 01:19:10;;;;;;;1999.90;999.90;;;;;;;8.10;65.04;100904.91;15907693;27;20510;-54
2021/04/21 01:26:53;;;;;;;1999.90;999.90;;;;;;;7.90;64.93;100910.91;15908714;27;20096;-56
2021/04/21 01:34:30;;;;;;;1999.90;999.90;;;;;;;7.83;65.07;100914.13;15925937;27;20483;-53
2021/04/21 01:42:03;;;;;;;1999.90;999.90;;;;;;;7.72;65.07;100910.72;15924379;27;20073;-54
2021/04/21 01:49:57;;;;;;;1999.90;999.90;;;;;;;7.70;65.20;100912.97;15923727;27;20437;-55
2021/04/21 01:57:39;;;;;;;1999.90;999.90;;;;;;;7.57;65.08;100915.75;15894949;27;20126;-56
2021/04/21 02:05:19;;;;;;;1999.90;999.90;;;;;;;7.48;65.95;100904.53;15924735;27;20057;-53
2021/04/21 02:13:19;;;;;;;1999.90;999.90;;;;;;;7.35;66.36;100903.41;15924681;27;20130;-55
2021/04/21 02:21:06;;;;;;;1999.90;999.90;;;;;;;7.21;66.92;100892.28;15874944;27;20463;-52
2021/04/21 02:28:47;;;;;;;1999.90;999.90;;;;;;;7.12;66.80;100888.56;15887684;27;20039;-59
2021/04/21 02:36:27;;;;;;;1999.90;999.90;;;;;;;7.08;67.74;100895.84;15923015;27;20209;-53
2021/04/21 02:44:09;;;;;;;1999.90;999.90;;;;;;;7.21;68.21;100891.47;15922913;28;20118;-54
2021/04/21 02:51:49;;;;;;;1999.90;999.90;;;;;;;7.31;68.16;100894.06;15887229;28;20130;-57
2021/04/21 02:59:29;;;;;;;1999.90;999.90;;;;;;;7.30;67.64;100897.13;15922427;28;20046;-59
2021/04/21 03:07:07;;;;;;;1999.90;999.90;;;;;;;7.24;67.40;100897.22;15896430;28;20441;-54
2021/04/21 03:14:46;;;;;;;1999.90;999.90;;;;;;;7.15;67.48;100895.44;15922148;28;20307;-55
2021/04/21 03:22:22;;;;;;;1999.90;999.90;;;;;;;7.02;67.64;100894.31;15905306;28;20045;-53
2021/04/21 03:29:55;;;;;;;1999.90;999.90;;;;;;;6.90;68.04;100892.00;15922377;28;20039;-52
2021/04/21 03:37:35;;;;;;;1999.90;999.90;;;;;;;6.74;68.47;100881.47;15891525;27;20081;-55
2021/04/21 03:45:09;;;;;;;1999.90;999.90;;;;;;;6.58;68.13;100878.97;15931944;27;20047;-52
2021/04/21 03:52:44;;;;;;;1999.90;999.90;;;;;;;6.42;68.36;100879.50;15913570;27;20046;-54
2021/04/21 04:00:18;;;;;;;1999.90;999.90;;;;;;;6.34;68.97;100878.22;15913526;27;20142;-55
2021/04/21 04:07:54;;;;;;;1999.90;999.90;;;;;;;6.39;69.17;100888.44;15905231;27;20050;-55
2021/04/21 04:15:26;;;;;;;1999.90;999.90;;;;;;;6.33;69.70;100882.94;15910174;27;20047;-58
2021/04/21 04:23:05;;;;;;;1999.90;999.90;;;;;;;6.48;69.04;100895.78;15930781;27;20043;-58
2021/04/21 04:30:38;;;;;;;1999.90;999.90;;;;;;;6.55;69.50;100896.19;15911547;27;20115;-55
2021/04/21 04:38:13;;;;;;;1999.90;999.90;;;;;;;6.78;69.06;100901.94;15912347;27;20062;-55
2021/04/21 04:45:50;;;;;;;1999.90;999.90;;;;;;;7.05;68.34;100906.72;15909498;27;20050;-55
2021/04/21 04:53:24;;;;;;;1999.90;999.90;;;;;;;7.38;67.41;100911.09;15909295;27;20054;-53
2021/04/21 05:01:09;;;;;;;1999.90;999.90;;;;;;;7.82;66.42;100909.69;15888454;27;20122;-54
2021/04/21 05:08:53;;;;;;;1999.90;999.90;;;;;;;8.31;65.44;100908.88;15926715;27;20091;-57
2021/04/21 05:17:17;;;;;;;1999.90;999.90;;;;;;;9.02;63.22;100913.88;15926773;27;20474;-56
2021/04/21 05:25:41;;;;;;;1999.90;999.90;;;;;;;9.44;62.49;100918.03;15913445;27;20039;-58
2021/04/21 05:33:52;;;;;;;1999.90;999.90;;;;;;;10.09;60.66;100914.47;15869363;27;20039;-54
2021/04/21 05:42:01;;;;;;;1999.90;999.90;;;;;;;11.05;57.77;100927.34;15924198;27;20055;-58
2021/04/21 05:50:06;;;;;;;1999.90;999.90;;;;;;;11.52;55.86;100921.78;15874437;27;20048;-59
2021/04/21 05:58:34;;;;;;;1999.90;999.90;;;;;;;12.44;53.62;100927.56;15844901;27;20051;-53
2021/04/21 06:06:06;;;;;;;1999.90;999.90;;;;;;;12.98;51.53;100933.19;15849037;28;20054;-56
2021/04/21 06:13:38;;;;;;;1999.90;999.90;;;;;;;14.02;48.39;100920.81;15840335;28;20048;-56
2021/04/21 06:21:18;;;;;;;1999.90;999.90;;;;;;;14.54;46.49;100934.09;15859095;28;20051;-53
2021/04/21 06:29:04;;;;;;;1999.90;999.90;;;;;;;15.94;43.68;100931.16;15856356;28;20047;-56
2021/04/21 06:36:40;;;;;;;1999.90;999.90;;;;;;;16.06;42.86;100945.97;15857369;28;20626;-57
2021/04/21 06:44:13;;;;;;;1999.90;999.90;;;;;;;16.71;41.44;100949.09;15839718;28;20514;-55
2021/04/21 06:51:46;;;;;;;1999.90;999.90;;;;;;;16.54;41.49;100948.66;15839588;28;20082;-57
2021/04/21 06:59:20;;;;;;;1999.90;999.90;;;;;;;17.53;40.77;100952.78;15858715;28;20394;-57
2021/04/21 07:06:53;;;;;;;1999.90;999.90;;;;;;;17.52;39.59;100957.59;15857900;28;20457;-60
2021/04/21 07:14:35;;;;;;;1999.90;999.90;;;;;;;19.42;35.85;100958.44;15866458;28;20043;-57
2021/04/21 07:22:12;;;;;;;1999.90;999.90;;;;;;;19.36;36.06;100943.81;15871197;28;20152;-59
2021/04/21 07:29:47;;;;;;;1999.90;999.90;;;;;;;21.08;31.78;100948.81;15851862;28;20067;-58
2021/04/21 07:37:33;;;;;;;1999.90;999.90;;;;;;;21.21;32.05;100947.25;15868637;28;20106;-59
2021/04/21 07:45:05;;;;;;;1999.90;999.90;;;;;;;22.14;29.81;100954.75;15832369;28;20066;-54
2021/04/21 07:52:40;;;;;;;1999.90;999.90;;;;;;;22.22;28.51;100952.72;15866435;27;20043;-59
2021/04/21 08:00:25;;;;;;;1999.90;999.90;;;;;;;22.29;28.92;100958.38;15879095;27;20522;-57
2021/04/21 08:08:01;;;;;;;1999.90;999.90;;;;;;;21.14;29.89;100956.53;15929049;27;20486;-58
2021/04/21 08:15:39;;;;;;;1999.90;999.90;;;;;;;21.54;28.67;100949.78;15926228;27;20051;-56
2021/04/21 08:23:18;;;;;;;1999.90;999.90;;;;;;;21.08;29.10;100949.63;15925465;27;20126;-60
2021/04/21 08:30:55;;;;;;;1999.90;999.90;;;;;;;21.62;29.62;100950.63;15860961;28;20112;-53
2021/04/21 08:38:31;;;;;;;1999.90;999.90;;;;;;;23.17;29.48;100955.75;15869783;27;20382;-57
2021/04/21 08:46:03;;;;;;;;;;;;;;;23.23;27.34;100957.72;15919683;27;20046;-55
2021/04/21 08:53:36;;;;;;;1999.90;999.90;;;;;;;24.07;28.99;100949.09;15919569;27;19961;-56
2021/04/21 09:01:10;;;;;;;1999.90;999.90;;;;;;;24.31;28.04;100949.31;15876570;27;20047;-52
2021/04/21 09:08:44;;;;;;;1999.90;999.90;;;;;;;23.63;31.31;100963.25;15867620;27;20055;-60
2021/04/21 09:16:17;;;;;;;1999.90;999.90;;;;;;;23.71;29.32;100953.44;15873888;27;20043;-57
2021/04/21 09:23:50;;;;;;;1999.90;999.90;;;;;;;23.81;28.71;100953.34;15898929;27;20047;-58
2021/04/21 09:31:25;;;;;;;1999.90;999.90;;;;;;;24.11;28.90;100947.00;15880311;27;20491;-57
2021/04/21 09:39:07;;;;;;;1999.90;999.90;;;;;;;23.83;27.60;100945.19;15866156;27;20422;-58
2021/04/21 09:46:41;;;;;;;1999.90;999.90;;;;;;;23.70;27.04;100946.94;15872138;27;20043;-57
2021/04/21 09:54:29;;;;;;;1999.90;999.90;;;;;;;24.52;28.42;100937.69;15869508;27;20047;-56
2021/04/21 10:02:25;;;;;;;1999.90;999.90;;;;;;;25.24;26.64;100943.38;15870532;27;20444;-58
2021/04/21 10:09:59;;;;;;;1999.90;999.90;;;;;;;25.75;25.10;100936.56;15872093;27;20067;-58
2021/04/21 10:17:36;;;;;;;1999.90;999.90;;;;;;;26.27;23.49;100933.22;15850619;27;20074;-58
2021/04/21 10:25:12;;;;;;;1999.90;999.90;;;;;;;24.41;24.98;100937.00;15861659;27;20354;-56
2021/04/21 10:32:44;;;;;;;1999.90;999.90;;;;;;;25.29;24.70;100922.91;15884139;27;20398;-59
2021/04/21 10:40:26;;;;;;;1999.90;999.90;;;;;;;25.96;24.96;100929.69;15889686;27;20078;-58
2021/04/21 10:47:58;;;;;;;1999.90;999.90;;;;;;;25.75;24.83;100927.16;15872449;27;20139;-58
2021/04/21 10:55:39;;;;;;;1999.90;999.90;;;;;;;26.50;24.05;100925.91;15899545;27;20059;-56
2021/04/21 11:03:12;;;;;;;1999.90;999.90;;;;;;;27.53;22.69;100918.81;15903276;27;20046;-58
2021/04/21 11:10:52;;;;;;;1999.90;999.90;;;;;;;27.73;21.05;100915.91;15864655;27;20058;-56
2021/04/21 11:18:25;;;;;;;1999.90;999.90;;;;;;;27.25;22.19;100911.66;15900479;27;20048;-58
2021/04/21 11:26:31;;;;;;;1999.90;999.90;;;;;;;26.30;23.36;100906.59;15903010;27;20044;-55
2021/04/21 11:34:16;;;;;;;1999.90;999.90;;;;;;;27.24;21.49;100904.31;15894319;22;20139;-59
2021/04/21 11:41:49;;;;;;;1999.90;999.90;;;;;;;27.16;22.31;100899.19;15824405;27;20126;-57
2021/04/21 11:49:58;;;;;;;1999.90;999.90;;;;;;;27.82;22.51;100886.59;15875205;27;20100;-60
2021/04/21 11:57:31;;;;;;;1999.90;999.90;;;;;;;26.38;23.20;100893.00;15877226;27;20039;-60
2021/04/21 12:05:03;;;;;;;1999.90;999.90;;;;;;;27.21;22.53;100896.63;15862514;27;20047;-57
2021/04/21 12:12:35;;;;;;;1999.90;999.90;;;;;;;28.86;21.59;100884.59;15894281;27;20069;-56
2021/04/21 12:20:07;;;;;;;;;;;;;;;25.67;22.93;100886.44;15877151;27;20058;-57
2021/04/21 12:27:41;;;;;;;1999.90;999.90;;;;;;;26.33;22.56;100873.44;15894981;27;19919;-56
2021/04/21 12:35:15;;;;;;;1999.90;999.90;;;;;;;23.88;24.39;100867.03;15876431;27;20044;-56
2021/04/21 12:42:47;;;;;;;;;;;;;;;29.67;19.81;100858.28;15840147;27;20456;-53
2021/04/21 12:50:19;;;;;;;;;;;;;;;31.38;17.93;100862.78;15860058;28;19919;-54
2021/04/21 12:57:51;;;;;;;1999.90;999.90;;;;;;;26.40;22.27;100848.41;15851728;28;19928;-58
2021/04/21 13:05:48;;;;;;;1999.90;999.90;;;;;;;31.92;18.04;100841.97;15850827;28;20469;-58
2021/04/21 13:13:26;;;;;;;1999.90;999.90;;;;;;;28.84;19.79;100823.94;15829047;28;20098;-61
2021/04/21 13:21:05;;;;;;;1999.90;999.90;;;;;;;25.31;22.66;100831.91;15836988;28;20039;-57
2021/04/21 13:28:38;;;;;;;1999.90;999.90;;;;;;;23.07;26.99;100808.63;15845238;28;20040;-59
2021/04/21 13:36:12;;;;;;;1999.90;999.90;;;;;;;29.53;19.45;100804.97;15853545;28;20046;-60
2021/04/21 13:43:45;;;;;;;1999.90;999.90;;;;;;;33.09;17.14;100795.38;15821088;28;20510;-59
2021/04/21 13:51:16;;;;;;;1999.90;999.90;;;;;;;24.99;22.01;100789.53;15843861;28;20047;-57
2021/04/21 13:58:49;;;;;;;1999.90;999.90;;;;;;;23.36;26.10;100792.97;15840431;28;20054;-58
2021/04/21 14:06:21;;;;;;;1999.90;999.90;;;;;;;23.40;27.29;100775.84;15822292;28;20040;-58
2021/04/21 14:13:54;;;;;;;1999.90;999.90;;;;;;;21.97;28.90;100778.56;15851003;28;20043;-56
2021/04/21 14:21:26;;;;;;;1999.90;999.90;;;;;;;21.79;27.22;100775.78;15854327;28;20050;-60
2021/04/21 14:28:58;;;;;;;1999.90;999.90;;;;;;;21.63;28.15;100764.03;15824435;28;20080;-57
2021/04/21 14:36:30;;;;;;;1999.90;999.90;;;;;;;20.68;28.98;100761.50;15840100;28;20067;-57
2021/04/21 14:44:04;;;;;;;1999.90;999.90;;;;;;;20.90;29.94;100765.19;15861102;28;20036;-58
2021/04/21 14:51:35;;;;;;;1999.90;999.90;;;;;;;20.55;29.46;100760.25;15794248;28;20036;-58
2021/04/21 14:59:08;;;;;;;1999.90;999.90;;;;;;;19.66;30.82;100758.97;15859835;28;20059;-55
2021/04/21 15:06:46;;;;;;;1999.90;999.90;;;;;;;20.35;28.69;100754.09;15861776;28;20166;-58
2021/04/21 15:14:20;;;;;;;1999.90;999.90;;;;;;;20.16;28.99;100760.88;15861843;28;20467;-56
2021/04/21 15:21:53;;;;;;;1999.90;999.90;;;;;;;19.50;30.91;100754.38;15858915;28;20418;-56
2021/04/21 15:29:26;;;;;;;1999.90;999.90;;;;;;;19.44;29.21;100744.63;15861789;28;20078;-56
2021/04/21 15:36:58;;;;;;;1999.90;999.90;;;;;;;19.49;29.41;100747.09;15866329;28;20036;-57
2021/04/21 15:44:30;;;;;;;1999.90;999.90;;;;;;;19.83;30.21;100750.59;15847700;28;20051;-56
2021/04/21 15:52:03;;;;;;;1999.90;999.90;;;;;;;19.55;29.44;100736.22;15871305;28;20048;-54
2021/04/21 15:59:35;;;;;;;1999.90;999.90;;;;;;;19.60;30.46;100738.72;15870727;28;20040;-55
2021/04/21 16:07:07;;;;;;;1999.90;999.90;;;;;;;19.73;31.99;100751.34;15871697;28;20050;-54
2021/04/21 16:14:40;;;;;;;1999.90;999.90;;;;;;;18.62;33.70;100745.84;15695528;28;21666;-58
2021/04/21 16:22:11;;;;;;;1999.90;999.90;;;;;;;18.57;36.89;100747.03;15616701;28;20099;-59
2021/04/21 16:29:46;;;;;;;1999.90;999.90;;;;;;;18.57;36.56;100757.53;15636690;28;20053;-57
2021/04/21 16:37:19;;;;;;;1999.90;999.90;;;;;;;17.99;35.60;100767.28;15645762;28;20099;-59
2021/04/21 16:44:52;;;;;;;1999.90;999.90;;;;;;;17.80;37.04;100773.03;15663396;28;20171;-59
2021/04/21 16:52:23;;;;;;;1999.90;999.90;;;;;;;17.53;37.60;100769.41;15663879;28;20053;-57
2021/04/21 16:59:57;;;;;;;1999.90;999.90;;;;;;;17.69;38.37;100783.34;15643780;28;20041;-57
2021/04/21 17:07:28;;;;;;;;;;;;;;;17.33;40.25;100779.13;15626113;28;20190;-57
2021/04/21 17:15:03;;;;;;;1999.90;999.90;;;;;;;17.22;40.79;100793.06;15629308;28;19924;-57
2021/04/21 17:22:35;;;;;;;1999.90;999.90;;;;;;;16.96;42.79;100807.88;15637789;28;20427;-59
2021/04/21 17:30:12;;;;;;;1999.90;999.90;;;;;;;16.65;44.13;100812.50;15644377;28;20062;-59
2021/04/21 17:37:45;;;;;;;1999.90;999.90;;;;;;;16.10;43.71;100830.63;15651174;23;657255;-57
2021/04/21 17:45:17;;;;;;;1999.90;999.90;;;;;;;15.76;43.90;100827.44;15652597;28;20608;-60
2021/04/21 17:52:49;;;;;;;1999.90;999.90;;;;;;;15.74;43.33;100829.81;15632487;28;20056;-59
2021/04/21 18:00:24;;;;;;;1999.90;999.90;;;;;;;15.46;42.95;100831.88;15638236;28;20199;-59
2021/04/21 18:07:57;;;;;;;1999.90;999.90;;;;;;;15.25;43.52;100847.03;15635113;28;20075;-59
2021/04/21 18:15:30;;;;;;;1999.90;999.90;;;;;;;15.31;42.63;100858.81;15638211;28;20119;-56
2021/04/21 18:23:03;;;;;;;1999.90;999.90;;;;;;;15.34;43.63;100863.72;15635899;28;20053;-56
2021/04/21 18:30:38;;;;;;;1999.90;999.90;;;;;;;14.81;44.72;100887.56;15637486;28;20065;-58
2021/04/21 18:38:10;;;;;;;1999.90;999.90;;;;;;;14.10;43.01;100897.41;15635956;28;20041;-59
2021/04/21 18:45:43;;;;;;;1999.90;999.90;;;;;;;13.86;42.78;100921.53;15635704;28;20048;-60
2021/04/21 18:53:16;;;;;;;1999.90;999.90;;;;;;;13.65;40.04;100923.63;15636354;28;20053;-60
2021/04/21 19:00:48;;;;;;;1999.90;999.90;;;;;;;13.72;38.57;100934.22;15633973;28;20124;-59
2021/04/21 19:08:24;;;;;;;1999.90;999.90;;;;;;;13.61;38.48;100942.28;15641522;28;20490;-61
2021/04/21 19:15:57;;;;;;;1999.90;999.90;;;;;;;13.34;39.03;100956.91;15645256;28;20452;-62
2021/04/21 19:23:28;;;;;;;1999.90;999.90;;;;;;;13.03;40.30;100963.00;15645397;28;20088;-59
2021/04/21 19:31:01;;;;;;;1999.90;999.90;;;;;;;12.81;41.25;100976.16;15629984;28;20076;-58
2021/04/21 19:38:34;;;;;;;1999.90;999.90;;;;;;;12.32;42.01;100975.06;15653990;28;20479;-58
2021/04/21 19:46:07;;;;;;;1999.90;999.90;;;;;;;12.31;41.27;100990.22;15629615;28;20053;-61
2021/04/21 19:53:38;;;;;;;1999.90;999.90;;;;;;;11.98;42.48;100993.63;15642724;28;20532;-63
2021/04/21 20:01:11;;;;;;;1999.90;999.90;;;;;;;11.69;42.86;100993.59;15629751;28;20132;-61
2021/04/21 20:08:44;;;;;;;1999.90;999.90;;;;;;;11.78;43.38;100998.00;15643087;28;20045;-62
2021/04/21 20:16:17;;;;;;;1999.90;999.90;;;;;;;11.42;43.72;101008.75;15640122;28;20755;-61
2021/04/21 20:23:53;;;;;;;1999.90;999.90;;;;;;;11.33;43.82;101000.41;15649733;28;20072;-60
2021/04/21 20:31:25;;;;;;;1999.90;999.90;;;;;;;11.22;45.08;101015.84;15642451;28;20491;-59
2021/04/21 20:38:57;;;;;;;1999.90;999.90;;;;;;;11.07;44.28;101031.16;15642574;28;20065;-59
2021/04/21 20:46:30;;;;;;;1999.90;999.90;;;;;;;10.98;44.47;101014.41;15642415;28;20053;-58
2021/04/21 20:54:03;;;;;;;1999.90;999.90;;;;;;;10.66;45.49;101031.63;15638714;28;20386;-55
2021/04/21 21:01:36;;;;;;;1999.90;999.90;;;;;;;10.56;44.85;101043.91;15642672;28;20103;-56
2021/04/21 21:09:09;;;;;;;1999.90;999.90;;;;;;;10.39;44.43;101047.47;15649111;28;20465;-55
2021/04/21 21:16:42;;;;;;;1999.90;999.90;;;;;;;10.20;42.45;101058.03;15640777;28;20680;-60
2021/04/21 21:24:13;;;;;;;1999.90;999.90;;;;;;;10.10;42.46;101066.69;15624685;28;20107;-59
2021/04/21 21:31:46;;;;;;;1999.90;999.90;;;;;;;10.22;42.53;101066.97;15640910;28;20049;-58
2021/04/21 21:39:17;;;;;;;1999.90;999.90;;;;;;;9.92;43.30;101067.75;15653095;28;20049;-57
2021/04/21 21:46:50;;;;;;;1999.90;999.90;;;;;;;9.89;44.03;101072.00;15636161;28;20508;-57
2021/04/21 21:54:21;;;;;;;1999.90;999.90;;;;;;;9.57;43.98;101075.91;15637567;28;20384;-56
2021/04/21 22:01:54;;;;;;;1999.90;999.90;;;;;;;9.43;45.25;101098.25;15643925;28;20098;-57
2021/04/21 22:09:27;;;;;;;1999.90;999.90;;;;;;;9.24;46.64;101097.63;15636266;28;20412;-57
2021/04/21 22:16:59;;;;;;;1999.90;999.90;;;;;;;9.17;47.06;101108.34;15636565;28;20045;-55
2021/04/21 22:24:31;;;;;;;1999.90;999.90;;;;;;;8.93;47.77;101120.59;15628564;28;20045;-59
2021/04/21 22:32:03;;;;;;;1999.90;999.90;;;;;;;8.71;47.95;101126.09;15627939;28;20132;-55
2021/04/21 22:39:35;;;;;;;1999.90;999.90;;;;;;;8.76;47.55;101137.13;15634493;28;20049;-52
2021/04/21 22:47:08;;;;;;;1999.90;999.90;;;;;;;8.37;48.64;101138.44;15631424;28;20071;-52
2021/04/21 22:54:39;;;;;;;1999.90;999.90;;;;;;;8.31;48.92;101136.84;15591717;28;20041;-56
2021/04/21 23:02:12;;;;;;;1999.90;999.90;;;;;;;8.11;48.46;101151.97;15610827;28;20050;-54
2021/04/21 23:09:43;;;;;;;1999.90;999.90;;;;;;;8.14;48.01;101155.28;15611519;28;20049;-56
2021/04/21 23:17:16;;;;;;;1999.90;999.90;;;;;;;7.88;47.49;101154.91;15644503;28;20047;-57
2021/04/21 23:24:47;;;;;;;1999.90;999.90;;;;;;;7.82;47.80;101159.75;15637517;28;20068;-57
2021/04/21 23:32:20;;;;;;;1999.90;999.90;;;;;;;7.67;47.16;101165.53;15667216;23;20582;-73
2021/04/21 23:39:51;;;;;;;1999.90;999.90;;;;;;;7.57;47.83;101169.28;15592913;28;20046;-73
2021/04/21 23:47:24;;;;;;;1999.90;999.90;;;;;;;7.52;47.57;101175.78;15610735;28;20041;-73
2021/04/21 23:54:56;;;;;;;1999.90;999.90;;;;;;;7.29;47.86;101173.06;15579208;28;20115;-73
